NORTHEAST SUFFOLK  -  Winter Weather Advisory Winter Weather Advisory        NORTHERN NASSAU  -  Winter Weather Advisory Winter Weather Advisory        NORTHWEST SUFFOLK  -  Winter Weather Advisory Winter Weather Advisory        SOUTHEAST SUFFOLK  -  Winter Weather Advisory Winter Weather Advisory        SOUTHERN NASSAU  -  Winter Weather Advisory Winter Weather Advisory        SOUTHWEST SUFFOLK  -  Winter Weather Advisory Winter Weather Advisory      

Active alerts

Northern Nassau
  Details for Northern Nassau Winter Weather Advisory
Southern Nassau
  Details for Southern Nassau Winter Weather Advisory
Northwest Suffolk
  Details for Northwest Suffolk Winter Weather Advisory
Southwest Suffolk
  Details for Southwest Suffolk Winter Weather Advisory
Northeast Suffolk
  Details for Northeast Suffolk Winter Weather Advisory
Southeast Suffolk
  Details for Southeast Suffolk Winter Weather Advisory


WXM80 ListenWXM80 Stop

You find our weather info also at:

UK Metoffice

WeatherCloud

Weather Underground

Northeastern Weather Network

AWEKAS

Citizen Weather Observer Program (CWOP)

HAMweather, WeatherForYou, PWS Weather


Weather Underground History page Text

Daily Summary for September 4, 2016 Units:  English    Metric   Both
« Previous Day
Next Day »
Daily Weekly Monthly Yearly Custom
  High: Low: Average:
Temperature: 80.7 °F 64.6 °F 71.5 °F
Dew Point: 63.9 °F 54.1 °F 60.4 °F
Humidity: 84 % 51 % 69 %
Wind Speed: 9.3 mph 0.0 mph 4 mph
Wind Gust: 16.1 mph - -
Wind:- - ENE
Pressure: 30.22 in 30.12 in -
Precipitation: 0.00 in    
Historical Graphs
 
 
Tabular Data for September 4, 2016
Time Temperature Dew Point Pressure Wind Wind Speed Wind Gust Humidity Rainfall Rate (Hourly)
00:01 67.4 °F 61.4 °F 30.14 in SE 0.7 mph 4.6 mph 81 % 0.00 in
00:06 67.4 °F 61.4 °F 30.14 in Calm   5.0 mph 81 % 0.00 in
00:11 67.4 °F 61.4 °F 30.14 in SE 1.0 mph 3.0 mph 81 % 0.00 in
00:16 67.3 °F 61.3 °F 30.14 in SSE 0.7 mph 1.2 mph 81 % 0.00 in
00:20 67.3 °F 61.3 °F 30.14 in SSE 1.0 mph 2.0 mph 81 % 0.00 in
00:25 67.2 °F 61.5 °F 30.14 in SE 1.0 mph 3.0 mph 82 % 0.00 in
00:30 67.1 °F 61.5 °F 30.14 in Calm   2.0 mph 82 % 0.00 in
00:36 67.1 °F 61.4 °F 30.14 in Calm   2.0 mph 82 % 0.00 in
00:41 67.0 °F 61.3 °F 30.14 in Calm   3.0 mph 82 % 0.00 in
00:45 67.0 °F 61.3 °F 30.14 in Calm     82 % 0.00 in
00:51 67.0 °F 61.7 °F 30.14 in Calm     83 % 0.00 in
00:56 66.9 °F 61.5 °F 30.14 in ESE 2.0 mph 3.0 mph 83 % 0.00 in
01:01 66.9 °F 61.2 °F 30.14 in ENE 2.2 mph 4.6 mph 82 % 0.00 in
01:06 67.1 °F 61.4 °F 30.14 in ENE 2.0 mph 9.0 mph 82 % 0.00 in
01:11 67.3 °F 61.7 °F 30.14 in East 2.0 mph 3.0 mph 82 % 0.00 in
01:15 67.5 °F 61.5 °F 30.14 in East 2.0 mph 6.0 mph 81 % 0.00 in
01:20 67.8 °F 61.8 °F 30.14 in ENE 2.3 mph 3.5 mph 81 % 0.00 in
01:26 68.0 °F 61.9 °F 30.14 in ENE 5.0 mph 12.0 mph 81 % 0.00 in
01:30 68.1 °F 61.7 °F 30.13 in ENE 6.0 mph 9.0 mph 80 % 0.00 in
01:35 68.3 °F 60.8 °F 30.14 in ENE 3.8 mph 6.9 mph 77 % 0.00 in
01:41 68.3 °F 60.8 °F 30.14 in ENE 3.0 mph 12.0 mph 77 % 0.00 in
01:46 68.4 °F 61.3 °F 30.14 in ENE 5.0 mph 9.0 mph 78 % 0.00 in
01:50 68.5 °F 62.4 °F 30.13 in ENE 3.0 mph 8.0 mph 81 % 0.00 in
01:55 68.6 °F 62.9 °F 30.13 in NE 3.0 mph 9.0 mph 82 % 0.00 in
02:01 68.6 °F 63.6 °F 30.13 in ENE 3.5 mph 5.8 mph 84 % 0.00 in
02:06 68.5 °F 63.1 °F 30.13 in NNE 4.4 mph 9.2 mph 83 % 0.00 in
02:11 68.4 °F 63.0 °F 30.13 in NE 4.0 mph 9.2 mph 83 % 0.00 in
02:16 68.2 °F 62.8 °F 30.12 in NE 3.3 mph 4.6 mph 83 % 0.00 in
02:21 68.0 °F 62.6 °F 30.12 in NNE 4.2 mph 7.0 mph 83 % 0.00 in
02:26 67.9 °F 62.5 °F 30.12 in NNE 4.0 mph 6.9 mph 83 % 0.00 in
02:31 67.6 °F 62.6 °F 30.12 in NE 3.2 mph 4.6 mph 84 % 0.00 in
02:36 67.5 °F 62.5 °F 30.13 in NNE 6.9 mph 11.5 mph 84 % 0.00 in
02:41 67.3 °F 62.3 °F 30.13 in NE 3.9 mph 6.9 mph 84 % 0.00 in
02:46 67.2 °F 62.2 °F 30.13 in ENE 3.8 mph 9.2 mph 84 % 0.00 in
02:52 67.1 °F 62.1 °F 30.13 in NNE 3.6 mph 6.9 mph 84 % 0.00 in
02:57 66.9 °F 61.9 °F 30.13 in NE 3.8 mph 6.9 mph 84 % 0.00 in
03:02 66.7 °F 61.4 °F 30.13 in NE 4.4 mph 11.0 mph 83 % 0.00 in
03:07 66.6 °F 61.3 °F 30.13 in East 2.6 mph 5.0 mph 83 % 0.00 in
03:12 66.5 °F 61.2 °F 30.13 in East 3.6 mph 6.0 mph 83 % 0.00 in
03:17 66.3 °F 61.0 °F 30.13 in ENE 4.2 mph 11.5 mph 83 % 0.00 in
03:22 66.2 °F 60.5 °F 30.13 in ENE 4.0 mph 11.5 mph 82 % 0.00 in
03:27 66.2 °F 60.5 °F 30.13 in NE 6.5 mph 10.0 mph 82 % 0.00 in
03:32 66.1 °F 60.4 °F 30.13 in NE 3.9 mph 4.6 mph 82 % 0.00 in
03:37 66.1 °F 60.4 °F 30.13 in North 3.1 mph 4.0 mph 82 % 0.00 in
03:43 66.0 °F 60.3 °F 30.14 in ENE 5.5 mph 9.0 mph 82 % 0.00 in
03:48 66.0 °F 60.7 °F 30.14 in NE 4.1 mph 8.1 mph 83 % 0.00 in
03:53 66.0 °F 60.7 °F 30.14 in East 3.5 mph 8.1 mph 83 % 0.00 in
03:58 65.9 °F 60.2 °F 30.14 in ENE 5.3 mph 9.2 mph 82 % 0.00 in
04:03 65.9 °F 60.2 °F 30.14 in East 5.0 mph 8.1 mph 82 % 0.00 in
04:08 65.8 °F 60.2 °F 30.14 in ENE 3.8 mph 8.1 mph 82 % 0.00 in
04:13 65.7 °F 60.1 °F 30.14 in NE 4.4 mph 9.2 mph 82 % 0.00 in
04:18 65.7 °F 59.7 °F 30.14 in NE 4.5 mph 8.1 mph 81 % 0.00 in
04:24 65.7 °F 60.1 °F 30.14 in North 3.3 mph 8.1 mph 82 % 0.00 in
04:29 65.6 °F 59.6 °F 30.14 in NE 3.9 mph 8.1 mph 81 % 0.00 in
04:34 65.5 °F 59.5 °F 30.14 in NE 4.9 mph 8.1 mph 81 % 0.00 in
04:39 65.5 °F 59.5 °F 30.14 in NNE 4.7 mph 10.4 mph 81 % 0.00 in
04:44 65.4 °F 59.4 °F 30.15 in NE 3.6 mph 8.1 mph 81 % 0.00 in
04:49 65.2 °F 59.2 °F 30.15 in NNE 3.2 mph 5.8 mph 81 % 0.00 in
04:54 65.1 °F 59.1 °F 30.15 in NE 3.9 mph 9.2 mph 81 % 0.00 in
04:59 65.0 °F 59.0 °F 30.15 in NE 4.6 mph 6.9 mph 81 % 0.00 in
05:04 64.9 °F 58.9 °F 30.15 in NE 4.5 mph 6.9 mph 81 % 0.00 in
05:09 64.8 °F 58.8 °F 30.15 in NNE 3.7 mph 5.8 mph 81 % 0.00 in
05:15 64.8 °F 58.8 °F 30.15 in ENE 3.9 mph 6.9 mph 81 % 0.00 in
05:20 64.7 °F 58.7 °F 30.15 in ENE 4.6 mph 11.5 mph 81 % 0.00 in
05:25 64.6 °F 58.6 °F 30.15 in ENE 4.8 mph 9.2 mph 81 % 0.00 in
05:30 64.6 °F 58.3 °F 30.15 in NE 6.1 mph 11.5 mph 80 % 0.00 in
05:35 64.6 °F 58.3 °F 30.15 in NE 6.4 mph 11.5 mph 80 % 0.00 in
05:40 64.7 °F 58.4 °F 30.16 in NE 3.8 mph 5.8 mph 80 % 0.00 in
05:45 64.7 °F 58.0 °F 30.16 in ENE 4.8 mph 8.1 mph 79 % 0.00 in
05:50 64.7 °F 58.4 °F 30.16 in ENE 4.5 mph 10.0 mph 80 % 0.00 in
05:55 64.8 °F 58.5 °F 30.16 in NNE 3.6 mph 11.5 mph 80 % 0.00 in
06:00 64.8 °F 58.1 °F 30.16 in ENE 6.4 mph 9.2 mph 79 % 0.00 in
06:06 64.8 °F 57.4 °F 30.17 in ENE 6.2 mph 16.1 mph 77 % 0.00 in
06:11 64.8 °F 57.4 °F 30.17 in ENE 6.0 mph 10.0 mph 77 % 0.00 in
06:16 64.9 °F 57.8 °F 30.17 in ENE 5.0 mph 13.0 mph 78 % 0.00 in
06:21 64.8 °F 57.4 °F 30.17 in NE 6.3 mph 8.1 mph 77 % 0.00 in
06:26 64.8 °F 57.4 °F 30.17 in ENE 5.0 mph 9.0 mph 77 % 0.00 in
06:31 64.8 °F 57.8 °F 30.17 in ENE 7.0 mph 12.0 mph 78 % 0.00 in
06:36 64.9 °F 57.5 °F 30.17 in ENE 5.2 mph 12.7 mph 77 % 0.00 in
06:41 64.9 °F 57.5 °F 30.17 in NE 3.0 mph 9.0 mph 77 % 0.00 in
06:46 64.9 °F 57.9 °F 30.18 in ENE 6.0 mph 13.0 mph 78 % 0.00 in
06:51 64.9 °F 57.9 °F 30.18 in NE 6.2 mph 9.2 mph 78 % 0.00 in
06:56 65.0 °F 58.0 °F 30.18 in NE 5.0 mph 10.0 mph 78 % 0.00 in
07:01 65.0 °F 58.0 °F 30.18 in ENE 4.5 mph 8.1 mph 78 % 0.00 in
07:06 65.1 °F 58.1 °F 30.19 in NE 3.7 mph 7.0 mph 78 % 0.00 in
07:11 65.1 °F 58.1 °F 30.19 in NNE 4.8 mph 9.2 mph 78 % 0.00 in
07:16 65.2 °F 58.2 °F 30.19 in ENE 7.8 mph 15.0 mph 78 % 0.00 in
07:21 65.4 °F 58.4 °F 30.19 in East 5.4 mph 9.2 mph 78 % 0.00 in
07:26 65.5 °F 58.5 °F 30.19 in ENE 5.4 mph 9.2 mph 78 % 0.00 in
07:31 65.7 °F 58.7 °F 30.19 in East 4.7 mph 13.8 mph 78 % 0.00 in
07:36 65.8 °F 58.4 °F 30.19 in ENE 5.4 mph 10.0 mph 77 % 0.00 in
07:41 65.9 °F 58.1 °F 30.19 in NE 8.1 mph 11.5 mph 76 % 0.00 in
07:46 66.1 °F 57.9 °F 30.19 in ENE 5.7 mph 9.2 mph 75 % 0.00 in
07:52 66.3 °F 58.5 °F 30.19 in ENE 6.1 mph 8.1 mph 76 % 0.00 in
07:57 66.4 °F 57.9 °F 30.20 in NE 5.0 mph 11.5 mph 74 % 0.00 in
08:02 66.6 °F 58.1 °F 30.20 in NE 6.5 mph 10.4 mph 74 % 0.00 in
08:07 66.7 °F 58.1 °F 30.20 in East 5.7 mph 16.0 mph 74 % 0.00 in
08:12 66.9 °F 58.3 °F 30.20 in NE 6.3 mph 10.0 mph 74 % 0.00 in
08:17 67.0 °F 58.8 °F 30.20 in ENE 4.6 mph 8.1 mph 75 % 0.00 in
08:22 67.0 °F 58.4 °F 30.20 in North 7.7 mph 12.7 mph 74 % 0.00 in
08:27 67.1 °F 58.5 °F 30.20 in ENE 6.8 mph 11.5 mph 74 % 0.00 in
08:32 67.2 °F 58.6 °F 30.20 in NE 7.2 mph 11.5 mph 74 % 0.00 in
08:37 67.2 °F 58.6 °F 30.20 in NNE 6.3 mph 11.5 mph 74 % 0.00 in
08:43 67.3 °F 59.1 °F 30.21 in NE 7.7 mph 12.7 mph 75 % 0.00 in
08:48 67.3 °F 58.7 °F 30.20 in NE 7.9 mph 11.5 mph 74 % 0.00 in
08:53 67.4 °F 58.8 °F 30.21 in ENE 6.2 mph 10.4 mph 74 % 0.00 in
08:58 67.6 °F 59.4 °F 30.21 in NE 9.3 mph 13.8 mph 75 % 0.00 in
09:03 67.7 °F 59.5 °F 30.21 in ENE 8.0 mph 13.0 mph 75 % 0.00 in
09:08 67.7 °F 59.1 °F 30.21 in ENE 8.7 mph 14.0 mph 74 % 0.00 in
09:13 67.8 °F 59.6 °F 30.22 in ENE 6.7 mph 13.8 mph 75 % 0.00 in
09:18 67.9 °F 59.3 °F 30.21 in East 8.4 mph 15.0 mph 74 % 0.00 in
09:23 67.9 °F 59.7 °F 30.21 in NE 7.4 mph 9.2 mph 75 % 0.00 in
09:28 68.2 °F 60.0 °F 30.21 in ENE 6.7 mph 11.5 mph 75 % 0.00 in
09:34 68.4 °F 60.2 °F 30.21 in ENE 7.6 mph 13.8 mph 75 % 0.00 in
09:39 68.7 °F 60.8 °F 30.21 in NE 7.9 mph 15.0 mph 76 % 0.00 in
09:44 68.9 °F 60.6 °F 30.21 in ENE 8.0 mph 10.4 mph 75 % 0.00 in
09:49 69.0 °F 61.1 °F 30.21 in NE 8.6 mph 12.7 mph 76 % 0.00 in
09:54 69.2 °F 60.9 °F 30.21 in ENE 6.4 mph 11.5 mph 75 % 0.00 in
09:59 69.6 °F 61.3 °F 30.21 in ENE 5.7 mph 9.2 mph 75 % 0.00 in
10:04 70.2 °F 61.9 °F 30.21 in ENE 9.1 mph 15.0 mph 75 % 0.00 in
10:09 70.5 °F 61.4 °F 30.21 in ENE 8.9 mph 12.7 mph 73 % 0.00 in
10:14 70.6 °F 61.9 °F 30.21 in ENE 7.9 mph 12.7 mph 74 % 0.00 in
10:19 70.8 °F 62.1 °F 30.21 in NE 8.0 mph 11.0 mph 74 % 0.00 in
10:25 70.7 °F 61.2 °F 30.21 in ENE 8.1 mph 10.4 mph 72 % 0.00 in
10:30 70.7 °F 61.2 °F 30.21 in NE 7.1 mph 15.0 mph 72 % 0.00 in
10:35 70.7 °F 62.0 °F 30.21 in ENE 4.8 mph 10.4 mph 74 % 0.00 in
10:40 70.6 °F 61.1 °F 30.21 in NE 8.3 mph 14.0 mph 72 % 0.00 in
10:45 70.6 °F 61.5 °F 30.21 in ENE 6.1 mph 14.0 mph 73 % 0.00 in
10:50 70.7 °F 61.6 °F 30.21 in ENE 4.1 mph 9.2 mph 73 % 0.00 in
10:55 71.0 °F 61.5 °F 30.21 in NE 6.2 mph 8.1 mph 72 % 0.00 in
11:00 71.5 °F 61.6 °F 30.21 in ENE 5.0 mph 9.2 mph 71 % 0.00 in
11:05 72.2 °F 61.5 °F 30.21 in ENE 6.3 mph 10.4 mph 69 % 0.00 in
11:11 72.5 °F 61.3 °F 30.21 in East 7.7 mph 10.4 mph 68 % 0.00 in
11:16 72.8 °F 61.2 °F 30.21 in ENE 7.0 mph 10.0 mph 67 % 0.00 in
11:21 73.3 °F 60.9 °F 30.21 in ENE 6.0 mph 12.0 mph 65 % 0.00 in
11:26 74.2 °F 61.2 °F 30.21 in ENE 7.0 mph 13.0 mph 64 % 0.00 in
11:31 74.7 °F 61.3 °F 30.21 in ENE 6.0 mph 10.0 mph 63 % 0.00 in
11:36 75.3 °F 61.4 °F 30.21 in ENE 5.0 mph 15.0 mph 62 % 0.00 in
11:41 75.6 °F 61.2 °F 30.22 in ENE 5.0 mph 10.0 mph 61 % 0.00 in
11:46 76.1 °F 61.2 °F 30.22 in ENE 5.0 mph 10.0 mph 60 % 0.00 in
11:51 76.4 °F 60.1 °F 30.22 in ENE 6.0 mph 12.0 mph 57 % 0.00 in
11:56 76.4 °F 60.5 °F 30.22 in ENE 5.0 mph 12.0 mph 58 % 0.00 in
12:01 76.8 °F 60.4 °F 30.22 in NE 7.0 mph 10.4 mph 57 % 0.00 in
12:06 76.7 °F 61.3 °F 30.22 in NE 4.7 mph 8.1 mph 59 % 0.00 in
12:11 76.9 °F 60.0 °F 30.22 in NE 4.2 mph 8.1 mph 56 % 0.00 in
12:16 76.9 °F 60.5 °F 30.22 in ENE 3.5 mph 6.9 mph 57 % 0.00 in
12:21 77.6 °F 60.7 °F 30.22 in NE 4.2 mph 10.4 mph 56 % 0.00 in
12:26 77.9 °F 59.4 °F 30.22 in NE 4.7 mph 6.9 mph 53 % 0.00 in
12:31 77.9 °F 58.9 °F 30.22 in ENE 3.2 mph 10.4 mph 52 % 0.00 in
12:36 78.0 °F 59.5 °F 30.22 in ENE 5.5 mph 9.2 mph 53 % 0.00 in
12:41 78.3 °F 61.3 °F 30.22 in ENE 2.9 mph 3.5 mph 56 % 0.00 in
12:47 79.0 °F 60.4 °F 30.21 in ENE 3.4 mph 7.0 mph 53 % 0.00 in
12:52 79.5 °F 61.9 °F 30.22 in East 2.0 mph 3.5 mph 55 % 0.00 in
12:57 79.9 °F 61.8 °F 30.22 in ENE 2.4 mph 4.6 mph 54 % 0.00 in
13:02 80.2 °F 63.1 °F 30.22 in ENE 1.9 mph 3.5 mph 56 % 0.00 in
13:07 80.4 °F 61.7 °F 30.22 in ENE 2.1 mph 3.5 mph 53 % 0.00 in
13:12 80.6 °F 61.3 °F 30.22 in NE 3.0 mph 4.6 mph 52 % 0.00 in
13:17 80.6 °F 61.3 °F 30.21 in ENE 2.0 mph 3.5 mph 52 % 0.00 in
13:22 80.5 °F 60.7 °F 30.21 in ENE 2.5 mph 8.1 mph 51 % 0.00 in
13:27 80.5 °F 61.8 °F 30.21 in ENE 2.1 mph 5.0 mph 53 % 0.00 in
13:32 80.4 °F 60.6 °F 30.21 in NE 2.3 mph 4.6 mph 51 % 0.00 in
13:38 80.4 °F 61.2 °F 30.21 in NE 1.8 mph 3.5 mph 52 % 0.00 in
13:43 80.3 °F 62.1 °F 30.21 in ENE 2.4 mph 3.5 mph 54 % 0.00 in
13:48 80.4 °F 61.7 °F 30.21 in ENE 2.5 mph 3.5 mph 53 % 0.00 in
13:53 80.4 °F 61.2 °F 30.21 in ENE 1.8 mph 3.0 mph 52 % 0.00 in
13:58 80.4 °F 61.2 °F 30.21 in ENE 3.1 mph 5.8 mph 52 % 0.00 in
14:03 80.3 °F 61.1 °F 30.21 in ENE 2.8 mph 3.5 mph 52 % 0.00 in
14:08 80.3 °F 62.1 °F 30.20 in ENE 3.0 mph 5.0 mph 54 % 0.00 in
14:13 80.3 °F 62.1 °F 30.20 in NE 4.0 mph 6.0 mph 54 % 0.00 in
14:18 80.2 °F 61.5 °F 30.20 in NE 4.9 mph 8.0 mph 53 % 0.00 in
14:23 80.2 °F 62.0 °F 30.20 in NE 3.7 mph 6.0 mph 54 % 0.00 in
14:29 80.0 °F 60.2 °F 30.20 in ENE 3.6 mph 8.1 mph 51 % 0.00 in
14:34 79.7 °F 60.5 °F 30.19 in ENE 5.5 mph 9.2 mph 52 % 0.00 in
14:39 79.6 °F 61.5 °F 30.19 in NE 1.7 mph 3.5 mph 54 % 0.00 in
14:44 79.6 °F 61.5 °F 30.19 in ENE 1.8 mph 3.5 mph 54 % 0.00 in
14:49 79.8 °F 62.2 °F 30.19 in ENE 1.5 mph 3.0 mph 55 % 0.00 in
14:54 80.0 °F 62.4 °F 30.19 in NE 2.5 mph 5.8 mph 55 % 0.00 in
14:59 80.0 °F 61.3 °F 30.19 in ENE 2.1 mph 3.5 mph 53 % 0.00 in
15:04 80.0 °F 63.4 °F 30.18 in NE 1.2 mph 2.3 mph 57 % 0.00 in
15:09 80.3 °F 62.7 °F 30.18 in NE 1.0 mph 2.3 mph 55 % 0.00 in
15:14 80.6 °F 62.9 °F 30.18 in NE 1.0 mph 2.3 mph 55 % 0.00 in
15:20 80.7 °F 62.5 °F 30.18 in NE 0.7 mph 3.5 mph 54 % 0.00 in
15:25 80.6 °F 62.4 °F 30.18 in NE 1.0 mph 3.5 mph 54 % 0.00 in
15:30 80.5 °F 62.8 °F 30.19 in NE 1.1 mph 2.3 mph 55 % 0.00 in
15:35 80.5 °F 63.4 °F 30.18 in NE 1.0 mph 2.3 mph 56 % 0.00 in
15:40 80.5 °F 62.8 °F 30.18 in NE 0.4 mph 1.2 mph 55 % 0.00 in
15:45 80.4 °F 61.7 °F 30.19 in NE 0.1 mph 2.3 mph 53 % 0.00 in
15:50 80.3 °F 62.1 °F 30.18 in NE 0.2 mph 1.2 mph 54 % 0.00 in
15:55 80.2 °F 62.6 °F 30.18 in NE 1.2 mph 2.3 mph 55 % 0.00 in
16:00 80.1 °F 63.0 °F 30.18 in NE 0.8 mph 2.3 mph 56 % 0.00 in
16:05 79.8 °F 62.2 °F 30.18 in NE 0.4 mph 2.3 mph 55 % 0.00 in
16:10 79.8 °F 62.7 °F 30.18 in ENE 0.3 mph 1.2 mph 56 % 0.00 in
16:15 79.7 °F 62.6 °F 30.18 in ENE 0.7 mph 2.3 mph 56 % 0.00 in
16:21 79.7 °F 62.6 °F 30.18 in ENE 1.0 mph 2.0 mph 56 % 0.00 in
16:26 79.6 °F 63.0 °F 30.18 in ENE 1.0 mph 2.0 mph 57 % 0.00 in
16:31 79.5 °F 62.9 °F 30.18 in ENE 1.5 mph 2.3 mph 57 % 0.00 in
16:36 79.3 °F 62.7 °F 30.18 in ESE 1.0 mph 3.0 mph 57 % 0.00 in
16:41 79.2 °F 62.6 °F 30.18 in ESE 1.0 mph 3.0 mph 57 % 0.00 in
16:46 79.1 °F 63.1 °F 30.18 in ENE 1.3 mph 2.3 mph 58 % 0.00 in
16:51 79.0 °F 63.0 °F 30.18 in ENE 1.0 mph 2.0 mph 58 % 0.00 in
16:56 78.9 °F 62.9 °F 30.18 in ENE 1.0 mph 3.0 mph 58 % 0.00 in
17:01 78.7 °F 63.2 °F 30.18 in ENE 0.5 mph 2.3 mph 59 % 0.00 in
17:06 78.6 °F 62.6 °F 30.18 in Calm   2.0 mph 58 % 0.00 in
17:11 78.4 °F 62.4 °F 30.18 in ENE 1.0 mph 2.0 mph 58 % 0.00 in
17:16 78.4 °F 63.4 °F 30.18 in ENE 0.7 mph 2.3 mph 60 % 0.00 in
17:21 78.2 °F 62.7 °F 30.18 in ENE 1.0 mph 2.0 mph 59 % 0.00 in
17:26 77.9 °F 62.4 °F 30.18 in ENE 1.0 mph 2.0 mph 59 % 0.00 in
17:31 77.7 °F 63.2 °F 30.18 in ENE 1.0 mph 2.0 mph 61 % 0.00 in
17:36 77.5 °F 63.0 °F 30.18 in ENE 1.0 mph 2.0 mph 61 % 0.00 in
17:41 77.3 °F 63.3 °F 30.18 in ENE 1.0 mph 2.0 mph 62 % 0.00 in
17:46 77.1 °F 63.1 °F 30.18 in ENE 1.0 mph 2.3 mph 62 % 0.00 in
17:51 76.8 °F 63.7 °F 30.18 in ENE 1.0 mph 2.0 mph 64 % 0.00 in
17:56 76.6 °F 63.0 °F 30.18 in ENE 1.0 mph 2.0 mph 63 % 0.00 in
18:01 76.3 °F 63.7 °F 30.18 in ENE 0.9 mph 1.2 mph 65 % 0.00 in
18:06 76.1 °F 63.9 °F 30.18 in ENE 1.0 mph 2.0 mph 66 % 0.00 in
18:11 75.8 °F 63.2 °F 30.18 in ENE 1.0 mph 2.0 mph 65 % 0.00 in
18:16 75.5 °F 62.9 °F 30.18 in East 1.0 mph 2.0 mph 65 % 0.00 in
18:21 75.3 °F 63.1 °F 30.18 in East 1.0 mph 2.0 mph 66 % 0.00 in
18:26 75.0 °F 62.9 °F 30.18 in East 1.0 mph 3.0 mph 66 % 0.00 in
18:31 74.7 °F 62.6 °F 30.18 in East 1.6 mph 3.5 mph 66 % 0.00 in
18:36 74.6 °F 62.9 °F 30.18 in East 1.0 mph 2.0 mph 67 % 0.00 in
18:41 74.3 °F 62.7 °F 30.18 in East 1.0 mph 3.0 mph 67 % 0.00 in
18:46 74.1 °F 62.4 °F 30.18 in East 1.9 mph 3.5 mph 67 % 0.00 in
18:51 73.9 °F 62.7 °F 30.18 in East 1.0 mph 3.0 mph 68 % 0.00 in
18:56 73.6 °F 62.4 °F 30.18 in East 1.0 mph 3.0 mph 68 % 0.00 in
19:01 73.4 °F 62.6 °F 30.18 in East 0.9 mph 2.3 mph 69 % 0.00 in
19:06 73.2 °F 62.4 °F 30.18 in East 1.0 mph 2.0 mph 69 % 0.00 in
19:11 73.0 °F 62.6 °F 30.18 in East 1.0 mph 2.0 mph 70 % 0.00 in
19:16 72.7 °F 62.3 °F 30.18 in East 1.2 mph 2.3 mph 70 % 0.00 in
19:21 72.5 °F 62.6 °F 30.18 in East 1.0 mph 2.0 mph 71 % 0.00 in
19:26 72.3 °F 62.4 °F 30.18 in East 1.0 mph 2.0 mph 71 % 0.00 in
19:31 72.1 °F 62.2 °F 30.18 in East 0.8 mph 2.3 mph 71 % 0.00 in
19:36 71.8 °F 61.9 °F 30.18 in East 0.7 mph 2.3 mph 71 % 0.00 in
19:41 71.6 °F 62.1 °F 30.19 in East 0.5 mph 2.3 mph 72 % 0.00 in
19:46 71.4 °F 61.9 °F 30.18 in East 0.1 mph 1.2 mph 72 % 0.00 in
19:51 71.3 °F 61.8 °F 30.18 in Calm   1.2 mph 72 % 0.00 in
19:56 71.1 °F 61.6 °F 30.18 in East 0.2 mph 1.2 mph 72 % 0.00 in
20:01 70.9 °F 61.8 °F 30.19 in Calm   1.0 mph 73 % 0.00 in
20:06 70.8 °F 61.7 °F 30.19 in East 0.8 mph 2.0 mph 73 % 0.00 in
20:11 70.7 °F 60.8 °F 30.19 in ENE 4.2 mph 9.2 mph 71 % 0.00 in
20:16 70.7 °F 58.8 °F 30.19 in ENE 3.7 mph 4.6 mph 66 % 0.00 in
20:21 71.0 °F 58.6 °F 30.19 in ENE 2.6 mph 5.0 mph 65 % 0.00 in
20:26 71.2 °F 58.0 °F 30.19 in NE 6.3 mph 11.5 mph 63 % 0.00 in
20:32 71.6 °F 58.3 °F 30.20 in ENE 4.7 mph 10.4 mph 63 % 0.00 in
20:37 71.9 °F 58.6 °F 30.20 in ENE 3.1 mph 4.6 mph 63 % 0.00 in
20:42 72.0 °F 58.7 °F 30.20 in ENE 4.5 mph 8.1 mph 63 % 0.00 in
20:47 72.1 °F 58.4 °F 30.20 in ENE 3.1 mph 3.5 mph 62 % 0.00 in
20:52 72.1 °F 57.9 °F 30.20 in ENE 2.7 mph 3.5 mph 61 % 0.00 in
20:57 72.1 °F 58.4 °F 30.20 in ENE 2.6 mph 8.1 mph 62 % 0.00 in
21:02 72.2 °F 58.9 °F 30.20 in ENE 6.1 mph 9.2 mph 63 % 0.00 in
21:07 72.2 °F 58.5 °F 30.20 in ENE 4.3 mph 6.9 mph 62 % 0.00 in
21:12 72.2 °F 58.5 °F 30.20 in East 4.9 mph 8.1 mph 62 % 0.00 in
21:17 72.2 °F 58.9 °F 30.20 in NE 6.5 mph 10.4 mph 63 % 0.00 in
21:23 72.1 °F 58.4 °F 30.20 in ENE 5.9 mph 11.5 mph 62 % 0.00 in
21:28 72.1 °F 58.8 °F 30.20 in ENE 4.0 mph 9.2 mph 63 % 0.00 in
21:33 72.0 °F 58.7 °F 30.20 in ENE 4.6 mph 10.4 mph 63 % 0.00 in
21:38 71.9 °F 58.6 °F 30.21 in ENE 6.3 mph 11.5 mph 63 % 0.00 in
21:43 71.9 °F 58.6 °F 30.21 in ENE 7.6 mph 12.7 mph 63 % 0.00 in
21:48 71.8 °F 59.0 °F 30.21 in ENE 3.3 mph 6.0 mph 64 % 0.00 in
21:53 71.6 °F 58.8 °F 30.21 in NE 6.5 mph 10.4 mph 64 % 0.00 in
21:58 71.4 °F 59.0 °F 30.21 in ENE 5.5 mph 10.4 mph 65 % 0.00 in
22:03 71.3 °F 58.5 °F 30.21 in ENE 7.7 mph 13.0 mph 64 % 0.00 in
22:09 71.1 °F 58.7 °F 30.21 in East 5.0 mph 8.0 mph 65 % 0.00 in
22:14 70.9 °F 58.1 °F 30.21 in ENE 7.8 mph 13.8 mph 64 % 0.00 in
22:19 70.8 °F 58.0 °F 30.20 in East 6.4 mph 11.5 mph 64 % 0.00 in
22:24 70.7 °F 57.9 °F 30.20 in NE 7.4 mph 10.4 mph 64 % 0.00 in
22:29 70.6 °F 57.8 °F 30.20 in ENE 5.2 mph 8.0 mph 64 % 0.00 in
22:34 70.5 °F 58.2 °F 30.20 in ENE 7.2 mph 11.5 mph 65 % 0.00 in
22:39 70.4 °F 58.1 °F 30.20 in ENE 7.0 mph 11.0 mph 65 % 0.00 in
22:44 70.3 °F 58.0 °F 30.20 in ENE 6.8 mph 10.4 mph 65 % 0.00 in
22:49 70.2 °F 57.9 °F 30.20 in East 6.8 mph 13.8 mph 65 % 0.00 in
22:54 70.1 °F 57.8 °F 30.20 in ENE 8.3 mph 12.7 mph 65 % 0.00 in
23:00 70.0 °F 57.7 °F 30.20 in NE 6.1 mph 11.0 mph 65 % 0.00 in
23:05 69.9 °F 56.7 °F 30.20 in ENE 5.2 mph 11.5 mph 63 % 0.00 in
23:10 69.9 °F 57.6 °F 30.20 in ENE 5.7 mph 12.7 mph 65 % 0.00 in
23:15 69.8 °F 56.2 °F 30.20 in ENE 7.6 mph 11.0 mph 62 % 0.00 in
23:20 69.8 °F 56.6 °F 30.20 in East 6.0 mph 10.4 mph 63 % 0.00 in
23:25 69.7 °F 54.7 °F 30.20 in East 8.2 mph 11.5 mph 59 % 0.00 in
23:30 69.7 °F 54.7 °F 30.20 in ENE 4.9 mph 9.2 mph 59 % 0.00 in
23:35 69.7 °F 54.7 °F 30.20 in ENE 8.1 mph 11.5 mph 59 % 0.00 in
23:40 69.7 °F 54.3 °F 30.20 in East 7.7 mph 10.4 mph 58 % 0.00 in
23:45 69.7 °F 55.2 °F 30.20 in ENE 5.0 mph 6.9 mph 60 % 0.00 in
23:51 69.6 °F 55.1 °F 30.20 in ENE 6.0 mph 12.0 mph 60 % 0.00 in
23:56 69.5 °F 54.1 °F 30.20 in ENE 8.0 mph 13.0 mph 58 % 0.00 in
Crab Meadow Weather
Compliments of Weather Underground - 3 mb

Script developed by  Jim McMurry - jmcmurry@mwt.net Adapted for the template by  Wim van der Kuil - Leuven-Template.eu

Weather Terms: Heat Index - The apparent temperature that describes the combined effect of high temperatures and high levels of humidity, which reduces the body's ability to cool itself.